Vendinga, Russia
Current Conditions -  °F | °C
As of 5:00 PM on Monday 24 Nov 2014 (Local Time) from UUYY Reporting Station
Overcast Overcast  
Wind Chill: -2°   Ceiling: 900
Heat Index: 10°   Visibility: 6mi
Dew Point:   Wind: 9mph
Humidity: 85%   Direction: 210°SSW
Pressure: 30.39"   Gusts: NA
Location:  63.45°N, 48°E
Report Text: UUYY 241400Z 21004MPS 9999 OVC009 M12/M14 Q1029 NOSIG 1981//51RMK QFE763/1018
Loading
Personal Weather Stations






























Interactive Weather Map New forecast layout! Learn more

10-Day Weather Forecast

Advertisements
Track Severe Weather on mobile